»·PEaware :: N212VC L88-KSBP

N212VC :: L88-KSBP

FLIGHT INFORMATION

Flight Status: Arrived
Operator: Privately registered:
United States
More flights under this callsign
Pilot: James M. (41478)
Aircraft: CESSNA 172 SKYHAWK
(C172)
More flights by this aircraft type
Origin: L88 New Cuyama
United States
Destination: KSBP San Luis Co Regl
United States
More flights between these airports :: More routes between these airports
Route:
File this flight plan on PilotEdge
Remarks:
Altitude:
(Current/Filed)
4,500ft
Speed:
(Current/Filed)
110kts
Departed: 25-Sep-22 08:20 AM
Arrived: 25-Sep-22 09:42 AM
Distance/Time
Traveled:
50nm/1:22
Distance/Time
To Go:
Arrived

Flight Plot

Page will automatically refresh every two minutes.


Map Options




Map Legend


Flown Route
Filed Route
Departure Airport
Arrival Airport
Navaid (VOR, NDB)
Fix

Horizontal Profiles

Position Reports

Time Latitude Longitude Heading Altitude Ground
Speed
25-Sep-22 08:14 34.942855 -119.690286 203 2156ft 0kts
25-Sep-22 08:15 34.942855 -119.690286 204 2156ft 0kts
25-Sep-22 08:16 34.942764 -119.690432 263 2156ft 1kts
25-Sep-22 08:17 34.942639 -119.691224 202 2155ft 1kts
25-Sep-22 08:18 34.942570 -119.691256 199 2155ft 2kts
25-Sep-22 08:19 34.938295 -119.681112 117 2421ft 61kts
25-Sep-22 08:20 34.923914 -119.669811 154 3052ft 61kts
25-Sep-22 08:21 34.920920 -119.679760 300 3575ft 82kts
25-Sep-22 08:22 34.932859 -119.702985 303 4469ft 83kts
25-Sep-22 08:23 34.947848 -119.733096 299 4552ft 107kts
25-Sep-22 08:24 34.963744 -119.767156 301 4544ft 117kts
25-Sep-22 08:25 34.978921 -119.803539 288 4448ft 121kts
25-Sep-22 08:26 34.993250 -119.840539 302 4445ft 119kts
25-Sep-22 08:27 35.005184 -119.877492 288 4474ft 118kts
25-Sep-22 08:28 35.019318 -119.914433 300 4420ft 120kts
25-Sep-22 08:29 35.033750 -119.951130 290 4471ft 118kts
25-Sep-22 08:30 35.046573 -119.988075 297 4608ft 120kts
25-Sep-22 08:31 35.059536 -120.025371 284 4707ft 117kts
25-Sep-22 08:32 35.067463 -120.066144 288 4391ft 121kts
25-Sep-22 08:33 35.080656 -120.103179 296 4370ft 113kts
25-Sep-22 08:34 35.099004 -120.134014 357 4384ft 116kts
25-Sep-22 08:35 35.095912 -120.098886 110 4211ft 126kts
25-Sep-22 08:36 35.084432 -120.059091 108 3960ft 124kts
25-Sep-22 08:37 35.070698 -120.020816 115 3666ft 121kts
25-Sep-22 08:38 35.055751 -119.984192 115 3421ft 116kts
25-Sep-22 08:39 35.042091 -119.949015 114 3415ft 114kts
25-Sep-22 08:40 35.030254 -119.913344 109 3489ft 112kts
25-Sep-22 08:42 35.018887 -119.877116 116 3421ft 115kts
25-Sep-22 08:43 35.005061 -119.843268 116 3435ft 110kts
25-Sep-22 08:44 34.991655 -119.810824 115 3529ft 107kts
25-Sep-22 08:45 34.977679 -119.780824 120 3446ft 86kts
25-Sep-22 08:46 34.967696 -119.756557 110 3206ft 76kts
25-Sep-22 08:47 34.959192 -119.732954 111 3012ft 75kts
25-Sep-22 08:48 34.950349 -119.709707 114 2813ft 75kts
25-Sep-22 08:49 34.940672 -119.687464 113 2172ft 55kts
25-Sep-22 08:50 34.938426 -119.681832 301 2192ft 5kts
25-Sep-22 08:51 34.941708 -119.689834 290 2160ft 26kts
25-Sep-22 08:52 34.942955 -119.690625 176 2155ft 0kts
25-Sep-22 08:53 34.942949 -119.690628 205 2155ft 0kts
25-Sep-22 08:54 34.942949 -119.690628 205 2155ft 0kts
25-Sep-22 08:55 34.942853 -119.690285 204 2156ft 0kts
25-Sep-22 08:56 34.942853 -119.690285 204 2156ft 0kts
25-Sep-22 08:57 34.942853 -119.690285 204 2156ft 0kts
25-Sep-22 08:58 34.942853 -119.690285 204 2156ft 0kts
25-Sep-22 08:59 34.942853 -119.690285 204 2156ft 0kts
25-Sep-22 09:00 34.942853 -119.690285 204 2156ft 0kts
25-Sep-22 09:01 34.942853 -119.690285 204 2156ft 0kts
25-Sep-22 09:02 34.942853 -119.690286 204 2156ft 0kts
25-Sep-22 09:03 34.942853 -119.690286 204 2156ft 0kts
25-Sep-22 09:04 34.942853 -119.690286 204 2156ft 0kts
25-Sep-22 09:05 34.942853 -119.690286 204 2156ft 0kts
25-Sep-22 09:06 34.942851 -119.690287 203 2156ft 0kts
25-Sep-22 09:07 34.942779 -119.690503 284 2156ft 4kts
25-Sep-22 09:08 34.942714 -119.691185 200 2155ft 0kts
25-Sep-22 09:08 34.942701 -119.691191 199 2155ft 1kts
25-Sep-22 09:10 34.939694 -119.684691 111 2261ft 66kts
25-Sep-22 09:11 34.926706 -119.669220 146 3059ft 71kts
25-Sep-22 09:12 34.922333 -119.681232 293 3821ft 78kts
25-Sep-22 09:13 34.929629 -119.707200 283 4577ft 90kts
25-Sep-22 09:13 34.936252 -119.735659 287 4633ft 117kts
25-Sep-22 09:14 34.953208 -119.771321 307 4478ft 124kts
25-Sep-22 09:16 34.980819 -119.806572 320 4358ft 122kts
25-Sep-22 09:17 35.005695 -119.834280 318 4296ft 122kts
25-Sep-22 09:17 35.027233 -119.855213 325 4401ft 116kts
25-Sep-22 09:18 35.045330 -119.885360 284 4532ft 116kts
25-Sep-22 09:19 35.040536 -119.923976 256 4614ft 118kts
25-Sep-22 09:20 35.035719 -119.963677 266 4448ft 120kts
25-Sep-22 09:21 35.036941 -120.003485 275 4377ft 117kts
25-Sep-22 09:22 35.042053 -120.042201 284 4358ft 115kts
25-Sep-22 09:23 35.050230 -120.080848 284 4320ft 116kts
25-Sep-22 09:24 35.057778 -120.119067 279 4411ft 114kts
25-Sep-22 09:25 35.063216 -120.157376 281 4501ft 114kts
25-Sep-22 09:26 35.069258 -120.195387 280 4504ft 112kts
25-Sep-22 09:27 35.074671 -120.232833 281 4494ft 113kts
25-Sep-22 09:28 35.082338 -120.269514 292 4507ft 111kts
25-Sep-22 09:29 35.096190 -120.303186 305 4513ft 112kts
25-Sep-22 09:30 35.110402 -120.336718 297 4538ft 110kts
25-Sep-22 09:31 35.122932 -120.372065 292 4491ft 111kts
25-Sep-22 09:32 35.135589 -120.406705 295 4502ft 111kts
25-Sep-22 09:33 35.146930 -120.442115 288 4492ft 111kts
25-Sep-22 09:34 35.155916 -120.478777 288 4429ft 112kts
25-Sep-22 09:35 35.167860 -120.513653 299 4023ft 111kts
25-Sep-22 09:36 35.183377 -120.546361 302 3512ft 110kts
25-Sep-22 09:37 35.200191 -120.574833 304 2864ft 88kts
25-Sep-22 09:38 35.212789 -120.597938 308 1762ft 82kts
25-Sep-22 09:39 35.224912 -120.618979 308 708ft 73kts
25-Sep-22 09:40 35.234919 -120.636871 303 216ft 44kts
25-Sep-22 09:41 35.237906 -120.640252 308 216ft 7kts
25-Sep-22 09:42 35.238513 -120.639620 323 216ft 2kts
25-Sep-22 09:43 35.238516 -120.639624 310 216ft 0kts

Navigation Log

Ident Type
Flight plan parsing failed, navigation log unavailable